sensor_id;sensor_type;location;lat;lon;timestamp;P1;durP1;ratioP1;P2;durP2;ratioP2
21843;SDS011;11084;52.482;9.108;2022-08-21T00:00:59;4.90;;;1.50;;
21843;SDS011;11084;52.482;9.108;2022-08-21T00:03:31;3.17;;;1.30;;
21843;SDS011;11084;52.482;9.108;2022-08-21T00:05:58;3.30;;;1.70;;
21843;SDS011;11084;52.482;9.108;2022-08-21T00:08:24;5.37;;;2.10;;
21843;SDS011;11084;52.482;9.108;2022-08-21T00:10:50;5.97;;;1.60;;
21843;SDS011;11084;52.482;9.108;2022-08-21T00:13:17;0.90;;;0.90;;
21843;SDS011;11084;52.482;9.108;2022-08-21T00:15:45;1.67;;;1.23;;
21843;SDS011;11084;52.482;9.108;2022-08-21T00:18:13;2.17;;;1.33;;
21843;SDS011;11084;52.482;9.108;2022-08-21T00:20:40;12.90;;;1.50;;
21843;SDS011;11084;52.482;9.108;2022-08-21T00:23:08;2.93;;;1.30;;
21843;SDS011;11084;52.482;9.108;2022-08-21T00:25:35;4.20;;;1.50;;
21843;SDS011;11084;52.482;9.108;2022-08-21T00:28:03;2.60;;;1.57;;
21843;SDS011;11084;52.482;9.108;2022-08-21T00:30:31;2.43;;;1.27;;
21843;SDS011;11084;52.482;9.108;2022-08-21T00:32:59;2.43;;;1.30;;
21843;SDS011;11084;52.482;9.108;2022-08-21T00:35:30;5.93;;;1.27;;
21843;SDS011;11084;52.482;9.108;2022-08-21T00:38:00;2.93;;;1.60;;
21843;SDS011;11084;52.482;9.108;2022-08-21T00:40:30;3.60;;;1.40;;
21843;SDS011;11084;52.482;9.108;2022-08-21T00:43:03;4.63;;;1.73;;
21843;SDS011;11084;52.482;9.108;2022-08-21T00:45:31;2.97;;;1.40;;
21843;SDS011;11084;52.482;9.108;2022-08-21T00:47:58;1.97;;;1.33;;
21843;SDS011;11084;52.482;9.108;2022-08-21T00:50:26;2.50;;;1.30;;
21843;SDS011;11084;52.482;9.108;2022-08-21T00:52:57;2.80;;;1.20;;
21843;SDS011;11084;52.482;9.108;2022-08-21T00:55:25;2.40;;;1.37;;
21843;SDS011;11084;52.482;9.108;2022-08-21T00:57:53;1.30;;;1.20;;
21843;SDS011;11084;52.482;9.108;2022-08-21T01:00:23;3.63;;;1.40;;
21843;SDS011;11084;52.482;9.108;2022-08-21T01:02:55;4.33;;;1.40;;
21843;SDS011;11084;52.482;9.108;2022-08-21T01:05:24;3.03;;;1.33;;
21843;SDS011;11084;52.482;9.108;2022-08-21T01:07:50;2.30;;;1.30;;
21843;SDS011;11084;52.482;9.108;2022-08-21T01:10:16;2.40;;;1.50;;
21843;SDS011;11084;52.482;9.108;2022-08-21T01:12:43;2.50;;;1.20;;
21843;SDS011;11084;52.482;9.108;2022-08-21T01:15:10;4.13;;;1.07;;
21843;SDS011;11084;52.482;9.108;2022-08-21T01:17:40;2.47;;;1.27;;
21843;SDS011;11084;52.482;9.108;2022-08-21T01:20:07;5.07;;;1.30;;
21843;SDS011;11084;52.482;9.108;2022-08-21T01:22:35;5.17;;;1.53;;
21843;SDS011;11084;52.482;9.108;2022-08-21T01:25:04;3.23;;;1.20;;
21843;SDS011;11084;52.482;9.108;2022-08-21T01:27:31;3.87;;;1.60;;
21843;SDS011;11084;52.482;9.108;2022-08-21T01:29:59;1.20;;;1.00;;
21843;SDS011;11084;52.482;9.108;2022-08-21T01:32:35;5.33;;;1.60;;
21843;SDS011;11084;52.482;9.108;2022-08-21T01:35:02;1.80;;;1.17;;
21843;SDS011;11084;52.482;9.108;2022-08-21T01:37:30;4.57;;;1.27;;
21843;SDS011;11084;52.482;9.108;2022-08-21T01:39:55;4.80;;;1.40;;
21843;SDS011;11084;52.482;9.108;2022-08-21T01:42:22;2.10;;;1.60;;
21843;SDS011;11084;52.482;9.108;2022-08-21T01:44:48;3.03;;;1.40;;
21843;SDS011;11084;52.482;9.108;2022-08-21T01:47:15;1.57;;;1.20;;
21843;SDS011;11084;52.482;9.108;2022-08-21T01:49:42;5.53;;;1.70;;
21843;SDS011;11084;52.482;9.108;2022-08-21T01:52:08;3.53;;;1.63;;
21843;SDS011;11084;52.482;9.108;2022-08-21T01:54:35;3.77;;;1.50;;
21843;SDS011;11084;52.482;9.108;2022-08-21T01:57:01;3.17;;;1.43;;
21843;SDS011;11084;52.482;9.108;2022-08-21T01:59:28;7.40;;;1.50;;
21843;SDS011;11084;52.482;9.108;2022-08-21T02:01:55;2.60;;;1.30;;
21843;SDS011;11084;52.482;9.108;2022-08-21T02:04:22;3.00;;;1.40;;
21843;SDS011;11084;52.482;9.108;2022-08-21T02:06:48;1.57;;;1.47;;
21843;SDS011;11084;52.482;9.108;2022-08-21T02:09:14;4.50;;;1.50;;
21843;SDS011;11084;52.482;9.108;2022-08-21T02:11:42;3.17;;;1.47;;
21843;SDS011;11084;52.482;9.108;2022-08-21T02:14:09;1.77;;;1.50;;
21843;SDS011;11084;52.482;9.108;2022-08-21T02:16:37;3.80;;;1.43;;
21843;SDS011;11084;52.482;9.108;2022-08-21T02:19:04;2.63;;;1.50;;
21843;SDS011;11084;52.482;9.108;2022-08-21T02:21:31;3.33;;;1.37;;
21843;SDS011;11084;52.482;9.108;2022-08-21T02:23:58;6.57;;;2.07;;
21843;SDS011;11084;52.482;9.108;2022-08-21T02:26:24;4.17;;;1.40;;
21843;SDS011;11084;52.482;9.108;2022-08-21T02:28:52;6.13;;;1.17;;
21843;SDS011;11084;52.482;9.108;2022-08-21T02:31:18;4.03;;;1.70;;
21843;SDS011;11084;52.482;9.108;2022-08-21T02:33:47;7.30;;;1.90;;
21843;SDS011;11084;52.482;9.108;2022-08-21T02:36:13;3.33;;;1.37;;
21843;SDS011;11084;52.482;9.108;2022-08-21T02:38:40;5.50;;;1.70;;
21843;SDS011;11084;52.482;9.108;2022-08-21T02:41:15;11.60;;;1.70;;
21843;SDS011;11084;52.482;9.108;2022-08-21T02:43:44;1.67;;;1.37;;
21843;SDS011;11084;52.482;9.108;2022-08-21T02:46:11;3.23;;;1.43;;
21843;SDS011;11084;52.482;9.108;2022-08-21T02:48:40;3.93;;;1.70;;
21843;SDS011;11084;52.482;9.108;2022-08-21T02:51:08;5.33;;;1.80;;
21843;SDS011;11084;52.482;9.108;2022-08-21T02:53:38;6.60;;;2.00;;
21843;SDS011;11084;52.482;9.108;2022-08-21T02:56:06;3.30;;;1.73;;
21843;SDS011;11084;52.482;9.108;2022-08-21T02:58:38;6.27;;;1.67;;
21843;SDS011;11084;52.482;9.108;2022-08-21T03:01:10;5.10;;;1.33;;
21843;SDS011;11084;52.482;9.108;2022-08-21T03:03:38;5.53;;;1.77;;
21843;SDS011;11084;52.482;9.108;2022-08-21T03:06:07;3.50;;;1.67;;
21843;SDS011;11084;52.482;9.108;2022-08-21T03:08:35;3.60;;;1.37;;
21843;SDS011;11084;52.482;9.108;2022-08-21T03:11:02;3.07;;;1.67;;
21843;SDS011;11084;52.482;9.108;2022-08-21T03:13:29;2.03;;;1.70;;
21843;SDS011;11084;52.482;9.108;2022-08-21T03:15:55;5.87;;;1.30;;
21843;SDS011;11084;52.482;9.108;2022-08-21T03:18:21;6.80;;;1.50;;
21843;SDS011;11084;52.482;9.108;2022-08-21T03:20:48;13.33;;;1.80;;
21843;SDS011;11084;52.482;9.108;2022-08-21T03:23:15;8.93;;;2.10;;
21843;SDS011;11084;52.482;9.108;2022-08-21T03:25:43;5.00;;;1.37;;
21843;SDS011;11084;52.482;9.108;2022-08-21T03:28:13;3.77;;;1.37;;
21843;SDS011;11084;52.482;9.108;2022-08-21T03:30:42;5.17;;;1.57;;
21843;SDS011;11084;52.482;9.108;2022-08-21T03:33:10;2.00;;;1.40;;
21843;SDS011;11084;52.482;9.108;2022-08-21T03:35:37;9.53;;;2.13;;
21843;SDS011;11084;52.482;9.108;2022-08-21T03:38:03;3.53;;;1.40;;
21843;SDS011;11084;52.482;9.108;2022-08-21T03:40:29;7.60;;;1.50;;
21843;SDS011;11084;52.482;9.108;2022-08-21T03:42:55;8.77;;;1.70;;
21843;SDS011;11084;52.482;9.108;2022-08-21T03:45:21;1.90;;;1.40;;
21843;SDS011;11084;52.482;9.108;2022-08-21T03:47:53;5.73;;;1.67;;
21843;SDS011;11084;52.482;9.108;2022-08-21T03:50:24;6.10;;;1.70;;
21843;SDS011;11084;52.482;9.108;2022-08-21T03:52:56;4.80;;;1.60;;
21843;SDS011;11084;52.482;9.108;2022-08-21T03:55:22;8.60;;;1.63;;
21843;SDS011;11084;52.482;9.108;2022-08-21T03:57:50;7.10;;;1.87;;
21843;SDS011;11084;52.482;9.108;2022-08-21T04:00:16;7.20;;;1.67;;
21843;SDS011;11084;52.482;9.108;2022-08-21T04:02:44;2.37;;;1.20;;
21843;SDS011;11084;52.482;9.108;2022-08-21T04:05:12;5.77;;;1.80;;
21843;SDS011;11084;52.482;9.108;2022-08-21T04:07:59;7.37;;;1.80;;
21843;SDS011;11084;52.482;9.108;2022-08-21T04:10:28;2.40;;;1.63;;
21843;SDS011;11084;52.482;9.108;2022-08-21T04:12:56;4.33;;;1.60;;
21843;SDS011;11084;52.482;9.108;2022-08-21T04:15:23;11.57;;;1.80;;
21843;SDS011;11084;52.482;9.108;2022-08-21T04:17:51;3.33;;;1.47;;
21843;SDS011;11084;52.482;9.108;2022-08-21T04:20:18;4.70;;;1.20;;
21843;SDS011;11084;52.482;9.108;2022-08-21T04:22:45;2.83;;;1.40;;
21843;SDS011;11084;52.482;9.108;2022-08-21T04:25:11;3.93;;;1.50;;
21843;SDS011;11084;52.482;9.108;2022-08-21T04:27:39;4.53;;;1.60;;
21843;SDS011;11084;52.482;9.108;2022-08-21T04:30:08;13.33;;;2.20;;
21843;SDS011;11084;52.482;9.108;2022-08-21T04:32:36;5.07;;;1.40;;
21843;SDS011;11084;52.482;9.108;2022-08-21T04:35:04;2.77;;;1.60;;
21843;SDS011;11084;52.482;9.108;2022-08-21T04:37:34;5.33;;;1.77;;
21843;SDS011;11084;52.482;9.108;2022-08-21T04:40:00;8.03;;;1.70;;
21843;SDS011;11084;52.482;9.108;2022-08-21T04:42:28;2.97;;;1.40;;
21843;SDS011;11084;52.482;9.108;2022-08-21T04:44:54;2.40;;;1.30;;
21843;SDS011;11084;52.482;9.108;2022-08-21T04:47:22;4.30;;;1.57;;
21843;SDS011;11084;52.482;9.108;2022-08-21T04:49:49;3.10;;;1.30;;
21843;SDS011;11084;52.482;9.108;2022-08-21T04:52:17;7.40;;;1.83;;
21843;SDS011;11084;52.482;9.108;2022-08-21T04:54:47;3.87;;;1.53;;
21843;SDS011;11084;52.482;9.108;2022-08-21T04:57:17;1.97;;;1.47;;
21843;SDS011;11084;52.482;9.108;2022-08-21T04:59:46;3.93;;;1.50;;
21843;SDS011;11084;52.482;9.108;2022-08-21T05:02:15;5.03;;;1.60;;
21843;SDS011;11084;52.482;9.108;2022-08-21T05:04:47;2.73;;;1.80;;
21843;SDS011;11084;52.482;9.108;2022-08-21T05:07:18;4.90;;;1.40;;
21843;SDS011;11084;52.482;9.108;2022-08-21T05:09:48;3.70;;;1.50;;
21843;SDS011;11084;52.482;9.108;2022-08-21T05:12:15;2.83;;;1.77;;
21843;SDS011;11084;52.482;9.108;2022-08-21T05:14:42;4.40;;;1.77;;
21843;SDS011;11084;52.482;9.108;2022-08-21T05:17:08;4.27;;;1.90;;
21843;SDS011;11084;52.482;9.108;2022-08-21T05:19:34;6.63;;;2.03;;
21843;SDS011;11084;52.482;9.108;2022-08-21T05:22:01;4.03;;;1.67;;
21843;SDS011;11084;52.482;9.108;2022-08-21T05:24:27;3.77;;;1.80;;
21843;SDS011;11084;52.482;9.108;2022-08-21T05:26:53;7.20;;;1.97;;
21843;SDS011;11084;52.482;9.108;2022-08-21T05:29:19;5.33;;;2.10;;
21843;SDS011;11084;52.482;9.108;2022-08-21T05:31:46;3.97;;;1.97;;
21843;SDS011;11084;52.482;9.108;2022-08-21T05:34:14;7.33;;;2.00;;
21843;SDS011;11084;52.482;9.108;2022-08-21T05:36:44;5.13;;;2.57;;
21843;SDS011;11084;52.482;9.108;2022-08-21T05:39:10;3.80;;;2.23;;
21843;SDS011;11084;52.482;9.108;2022-08-21T05:41:36;4.43;;;2.43;;
21843;SDS011;11084;52.482;9.108;2022-08-21T05:44:03;5.00;;;2.50;;
21843;SDS011;11084;52.482;9.108;2022-08-21T05:46:29;8.07;;;2.70;;
21843;SDS011;11084;52.482;9.108;2022-08-21T05:48:55;8.77;;;2.73;;
21843;SDS011;11084;52.482;9.108;2022-08-21T05:51:21;11.00;;;3.27;;
21843;SDS011;11084;52.482;9.108;2022-08-21T05:53:47;13.77;;;3.60;;
21843;SDS011;11084;52.482;9.108;2022-08-21T05:56:14;6.27;;;2.97;;
21843;SDS011;11084;52.482;9.108;2022-08-21T05:58:40;8.37;;;3.70;;
21843;SDS011;11084;52.482;9.108;2022-08-21T06:01:07;8.47;;;3.33;;
21843;SDS011;11084;52.482;9.108;2022-08-21T06:03:36;9.63;;;3.80;;
21843;SDS011;11084;52.482;9.108;2022-08-21T06:06:04;8.23;;;2.97;;
21843;SDS011;11084;52.482;9.108;2022-08-21T06:08:30;16.17;;;3.63;;
21843;SDS011;11084;52.482;9.108;2022-08-21T06:10:57;8.43;;;3.77;;
21843;SDS011;11084;52.482;9.108;2022-08-21T06:13:26;11.40;;;3.60;;
21843;SDS011;11084;52.482;9.108;2022-08-21T06:16:03;12.17;;;3.10;;
21843;SDS011;11084;52.482;9.108;2022-08-21T06:18:41;9.63;;;3.43;;
21843;SDS011;11084;52.482;9.108;2022-08-21T06:21:09;8.00;;;3.43;;
21843;SDS011;11084;52.482;9.108;2022-08-21T06:23:36;16.50;;;3.40;;
21843;SDS011;11084;52.482;9.108;2022-08-21T06:26:03;10.03;;;2.80;;
21843;SDS011;11084;52.482;9.108;2022-08-21T06:28:32;12.63;;;3.00;;
21843;SDS011;11084;52.482;9.108;2022-08-21T06:30:59;8.20;;;2.60;;
21843;SDS011;11084;52.482;9.108;2022-08-21T06:33:26;12.63;;;3.00;;
21843;SDS011;11084;52.482;9.108;2022-08-21T06:35:52;10.03;;;2.53;;
21843;SDS011;11084;52.482;9.108;2022-08-21T06:38:18;17.20;;;3.00;;
21843;SDS011;11084;52.482;9.108;2022-08-21T06:40:44;8.43;;;2.93;;
21843;SDS011;11084;52.482;9.108;2022-08-21T06:43:11;12.90;;;2.83;;
21843;SDS011;11084;52.482;9.108;2022-08-21T06:45:41;5.10;;;2.47;;
21843;SDS011;11084;52.482;9.108;2022-08-21T06:48:08;6.63;;;2.80;;
21843;SDS011;11084;52.482;9.108;2022-08-21T06:50:34;6.83;;;2.70;;
21843;SDS011;11084;52.482;9.108;2022-08-21T06:53:05;4.83;;;2.10;;
21843;SDS011;11084;52.482;9.108;2022-08-21T06:55:37;8.63;;;1.77;;
21843;SDS011;11084;52.482;9.108;2022-08-21T06:58:05;6.27;;;2.27;;
21843;SDS011;11084;52.482;9.108;2022-08-21T07:00:32;8.10;;;1.97;;
21843;SDS011;11084;52.482;9.108;2022-08-21T07:02:59;3.73;;;1.97;;
21843;SDS011;11084;52.482;9.108;2022-08-21T07:05:26;7.80;;;2.07;;
21843;SDS011;11084;52.482;9.108;2022-08-21T07:07:54;7.67;;;2.30;;
21843;SDS011;11084;52.482;9.108;2022-08-21T07:10:27;8.37;;;2.17;;
21843;SDS011;11084;52.482;9.108;2022-08-21T07:12:53;4.40;;;2.33;;
21843;SDS011;11084;52.482;9.108;2022-08-21T07:15:20;7.43;;;2.40;;
21843;SDS011;11084;52.482;9.108;2022-08-21T07:17:46;8.87;;;2.47;;
21843;SDS011;11084;52.482;9.108;2022-08-21T07:20:12;10.17;;;2.73;;
21843;SDS011;11084;52.482;9.108;2022-08-21T07:22:38;5.20;;;2.17;;
21843;SDS011;11084;52.482;9.108;2022-08-21T07:25:05;7.30;;;2.10;;
21843;SDS011;11084;52.482;9.108;2022-08-21T07:27:32;4.30;;;1.87;;
21843;SDS011;11084;52.482;9.108;2022-08-21T07:29:58;6.27;;;1.73;;
21843;SDS011;11084;52.482;9.108;2022-08-21T07:32:25;5.93;;;2.20;;
21843;SDS011;11084;52.482;9.108;2022-08-21T07:34:51;2.70;;;1.67;;
21843;SDS011;11084;52.482;9.108;2022-08-21T07:37:17;3.90;;;1.60;;
21843;SDS011;11084;52.482;9.108;2022-08-21T07:39:43;8.80;;;1.63;;
21843;SDS011;11084;52.482;9.108;2022-08-21T07:42:09;9.60;;;1.47;;
21843;SDS011;11084;52.482;9.108;2022-08-21T07:44:35;4.83;;;1.40;;
21843;SDS011;11084;52.482;9.108;2022-08-21T07:47:01;8.47;;;1.80;;
21843;SDS011;11084;52.482;9.108;2022-08-21T07:49:27;5.30;;;1.43;;
21843;SDS011;11084;52.482;9.108;2022-08-21T07:51:54;9.80;;;1.80;;
21843;SDS011;11084;52.482;9.108;2022-08-21T07:54:20;4.80;;;1.57;;
21843;SDS011;11084;52.482;9.108;2022-08-21T07:56:46;4.63;;;1.80;;
21843;SDS011;11084;52.482;9.108;2022-08-21T07:59:12;4.53;;;1.90;;
21843;SDS011;11084;52.482;9.108;2022-08-21T08:01:38;6.83;;;1.67;;
21843;SDS011;11084;52.482;9.108;2022-08-21T08:04:04;3.67;;;1.30;;
21843;SDS011;11084;52.482;9.108;2022-08-21T08:06:30;6.03;;;1.93;;
21843;SDS011;11084;52.482;9.108;2022-08-21T08:08:56;6.77;;;1.30;;
21843;SDS011;11084;52.482;9.108;2022-08-21T08:11:22;3.70;;;1.27;;
21843;SDS011;11084;52.482;9.108;2022-08-21T08:13:49;3.30;;;1.43;;
21843;SDS011;11084;52.482;9.108;2022-08-21T08:16:17;4.30;;;1.47;;
21843;SDS011;11084;52.482;9.108;2022-08-21T08:18:44;5.80;;;1.53;;
21843;SDS011;11084;52.482;9.108;2022-08-21T08:21:11;4.50;;;1.40;;
21843;SDS011;11084;52.482;9.108;2022-08-21T08:23:38;4.07;;;1.40;;
21843;SDS011;11084;52.482;9.108;2022-08-21T08:26:04;4.90;;;1.50;;
21843;SDS011;11084;52.482;9.108;2022-08-21T08:28:31;3.30;;;1.50;;
21843;SDS011;11084;52.482;9.108;2022-08-21T08:30:58;6.20;;;1.60;;
21843;SDS011;11084;52.482;9.108;2022-08-21T08:33:25;3.20;;;1.17;;
21843;SDS011;11084;52.482;9.108;2022-08-21T08:35:52;6.43;;;1.50;;
21843;SDS011;11084;52.482;9.108;2022-08-21T08:38:19;6.10;;;1.70;;
21843;SDS011;11084;52.482;9.108;2022-08-21T08:43:36;3.87;;;1.43;;
21843;SDS011;11084;52.482;9.108;2022-08-21T08:46:03;5.73;;;1.20;;
21843;SDS011;11084;52.482;9.108;2022-08-21T08:51:24;4.22;;;1.30;;
21843;SDS011;11084;52.482;9.108;2022-08-21T08:54:11;2.03;;;1.10;;
21843;SDS011;11084;52.482;9.108;2022-08-21T08:56:44;17.08;;;1.83;;
21843;SDS011;11084;52.482;9.108;2022-08-21T08:59:25;4.47;;;1.55;;
21843;SDS011;11084;52.482;9.108;2022-08-21T09:02:02;6.80;;;1.67;;
21843;SDS011;11084;52.482;9.108;2022-08-21T09:04:30;2.88;;;1.13;;
21843;SDS011;11084;52.482;9.108;2022-08-21T09:13:21;5.18;;;1.48;;
21843;SDS011;11084;52.482;9.108;2022-08-21T09:19:22;5.13;;;1.60;;
21843;SDS011;11084;52.482;9.108;2022-08-21T09:22:03;10.95;;;1.70;;
21843;SDS011;11084;52.482;9.108;2022-08-21T09:27:23;3.83;;;1.13;;
21843;SDS011;11084;52.482;9.108;2022-08-21T09:29:50;4.80;;;1.58;;
21843;SDS011;11084;52.482;9.108;2022-08-21T09:32:27;3.83;;;1.23;;
21843;SDS011;11084;52.482;9.108;2022-08-21T09:37:29;2.65;;;1.67;;
21843;SDS011;11084;52.482;9.108;2022-08-21T09:39:58;7.88;;;1.58;;
21843;SDS011;11084;52.482;9.108;2022-08-21T09:42:29;5.22;;;1.25;;
21843;SDS011;11084;52.482;9.108;2022-08-21T09:47:42;4.47;;;1.48;;
21843;SDS011;11084;52.482;9.108;2022-08-21T09:50:21;7.78;;;1.52;;
21843;SDS011;11084;52.482;9.108;2022-08-21T09:52:56;4.38;;;1.40;;
21843;SDS011;11084;52.482;9.108;2022-08-21T09:55:38;4.60;;;1.50;;
21843;SDS011;11084;52.482;9.108;2022-08-21T09:58:33;3.38;;;1.30;;
21843;SDS011;11084;52.482;9.108;2022-08-21T10:01:05;4.07;;;1.25;;
21843;SDS011;11084;52.482;9.108;2022-08-21T10:03:37;6.38;;;1.52;;
21843;SDS011;11084;52.482;9.108;2022-08-21T10:06:05;6.10;;;1.83;;
21843;SDS011;11084;52.482;9.108;2022-08-21T10:08:40;12.43;;;1.52;;
21843;SDS011;11084;52.482;9.108;2022-08-21T10:11:08;5.45;;;1.98;;
21843;SDS011;11084;52.482;9.108;2022-08-21T10:13:54;3.23;;;1.20;;
21843;SDS011;11084;52.482;9.108;2022-08-21T10:19:46;5.72;;;1.40;;
21843;SDS011;11084;52.482;9.108;2022-08-21T10:30:46;9.13;;;1.60;;
21843;SDS011;11084;52.482;9.108;2022-08-21T10:33:28;9.25;;;1.67;;
21843;SDS011;11084;52.482;9.108;2022-08-21T10:36:12;2.60;;;1.45;;
21843;SDS011;11084;52.482;9.108;2022-08-21T10:38:58;14.52;;;5.35;;
21843;SDS011;11084;52.482;9.108;2022-08-21T10:47:15;6.17;;;1.17;;
21843;SDS011;11084;52.482;9.108;2022-08-21T10:50:02;6.77;;;1.33;;
21843;SDS011;11084;52.482;9.108;2022-08-21T10:53:22;7.03;;;2.03;;
21843;SDS011;11084;52.482;9.108;2022-08-21T10:56:25;1.87;;;1.30;;
21843;SDS011;11084;52.482;9.108;2022-08-21T11:04:48;3.03;;;1.50;;
21843;SDS011;11084;52.482;9.108;2022-08-21T11:07:57;7.67;;;1.50;;
21843;SDS011;11084;52.482;9.108;2022-08-21T11:10:37;6.37;;;1.40;;
21843;SDS011;11084;52.482;9.108;2022-08-21T11:13:15;4.00;;;1.80;;
21843;SDS011;11084;52.482;9.108;2022-08-21T11:15:58;6.53;;;1.50;;
21843;SDS011;11084;52.482;9.108;2022-08-21T11:18:49;4.77;;;1.47;;
21843;SDS011;11084;52.482;9.108;2022-08-21T11:29:44;8.53;;;1.60;;
21843;SDS011;11084;52.482;9.108;2022-08-21T11:45:53;3.65;;;1.10;;
21843;SDS011;11084;52.482;9.108;2022-08-21T11:57:02;2.78;;;1.55;;
21843;SDS011;11084;52.482;9.108;2022-08-21T12:05:42;4.90;;;1.48;;
21843;SDS011;11084;52.482;9.108;2022-08-21T12:08:31;3.30;;;1.55;;
21843;SDS011;11084;52.482;9.108;2022-08-21T12:11:30;6.13;;;1.17;;
21843;SDS011;11084;52.482;9.108;2022-08-21T12:13:57;2.33;;;1.20;;
21843;SDS011;11084;52.482;9.108;2022-08-21T12:16:34;4.57;;;1.15;;
21843;SDS011;11084;52.482;9.108;2022-08-21T12:24:31;4.75;;;1.58;;
21843;SDS011;11084;52.482;9.108;2022-08-21T12:29:49;3.88;;;1.40;;
21843;SDS011;11084;52.482;9.108;2022-08-21T12:32:25;5.53;;;1.45;;
21843;SDS011;11084;52.482;9.108;2022-08-21T12:35:18;3.33;;;1.20;;
21843;SDS011;11084;52.482;9.108;2022-08-21T12:37:52;7.88;;;1.45;;
21843;SDS011;11084;52.482;9.108;2022-08-21T12:40:50;5.88;;;1.75;;
21843;SDS011;11084;52.482;9.108;2022-08-21T12:43:38;7.28;;;1.90;;
21843;SDS011;11084;52.482;9.108;2022-08-21T12:46:25;3.20;;;1.80;;
21843;SDS011;11084;52.482;9.108;2022-08-21T12:49:12;2.67;;;1.40;;
21843;SDS011;11084;52.482;9.108;2022-08-21T12:54:58;5.85;;;1.60;;
21843;SDS011;11084;52.482;9.108;2022-08-21T12:57:27;2.53;;;1.40;;
21843;SDS011;11084;52.482;9.108;2022-08-21T13:00:03;5.93;;;1.30;;
21843;SDS011;11084;52.482;9.108;2022-08-21T13:02:36;3.47;;;1.17;;
21843;SDS011;11084;52.482;9.108;2022-08-21T13:05:14;8.10;;;1.80;;
21843;SDS011;11084;52.482;9.108;2022-08-21T13:07:49;3.15;;;1.38;;
21843;SDS011;11084;52.482;9.108;2022-08-21T13:12:49;3.97;;;1.27;;
21843;SDS011;11084;52.482;9.108;2022-08-21T13:15:33;4.55;;;2.15;;
21843;SDS011;11084;52.482;9.108;2022-08-21T13:18:02;6.22;;;1.30;;
21843;SDS011;11084;52.482;9.108;2022-08-21T13:20:34;9.60;;;1.70;;
21843;SDS011;11084;52.482;9.108;2022-08-21T13:23:06;3.35;;;1.50;;
21843;SDS011;11084;52.482;9.108;2022-08-21T13:25:46;5.93;;;1.90;;
21843;SDS011;11084;52.482;9.108;2022-08-21T13:28:12;3.53;;;1.60;;
21843;SDS011;11084;52.482;9.108;2022-08-21T13:30:47;3.20;;;1.75;;
21843;SDS011;11084;52.482;9.108;2022-08-21T13:33:24;2.78;;;1.40;;
21843;SDS011;11084;52.482;9.108;2022-08-21T13:38:33;6.78;;;1.25;;
21843;SDS011;11084;52.482;9.108;2022-08-21T13:41:06;1.98;;;1.35;;
21843;SDS011;11084;52.482;9.108;2022-08-21T13:43:58;7.18;;;1.90;;
21843;SDS011;11084;52.482;9.108;2022-08-21T13:46:28;5.47;;;1.88;;
21843;SDS011;11084;52.482;9.108;2022-08-21T13:49:00;2.97;;;1.40;;
21843;SDS011;11084;52.482;9.108;2022-08-21T13:51:29;2.72;;;1.58;;
21843;SDS011;11084;52.482;9.108;2022-08-21T13:53:57;3.55;;;1.73;;
21843;SDS011;11084;52.482;9.108;2022-08-21T13:59:07;5.28;;;1.75;;
21843;SDS011;11084;52.482;9.108;2022-08-21T14:01:34;4.88;;;1.42;;
21843;SDS011;11084;52.482;9.108;2022-08-21T14:04:15;6.82;;;1.65;;
21843;SDS011;11084;52.482;9.108;2022-08-21T14:07:17;3.17;;;1.77;;
21843;SDS011;11084;52.482;9.108;2022-08-21T14:09:53;5.90;;;1.67;;
21843;SDS011;11084;52.482;9.108;2022-08-21T14:12:28;4.22;;;1.85;;
21843;SDS011;11084;52.482;9.108;2022-08-21T14:15:06;4.90;;;1.70;;
21843;SDS011;11084;52.482;9.108;2022-08-21T14:17:35;7.55;;;1.63;;
21843;SDS011;11084;52.482;9.108;2022-08-21T14:20:09;8.85;;;2.13;;
21843;SDS011;11084;52.482;9.108;2022-08-21T14:22:58;3.13;;;1.63;;
21843;SDS011;11084;52.482;9.108;2022-08-21T14:27:52;2.80;;;1.48;;
21843;SDS011;11084;52.482;9.108;2022-08-21T14:30:34;5.60;;;1.92;;
21843;SDS011;11084;52.482;9.108;2022-08-21T14:33:11;2.85;;;1.75;;
21843;SDS011;11084;52.482;9.108;2022-08-21T14:35:44;5.78;;;1.80;;
21843;SDS011;11084;52.482;9.108;2022-08-21T14:38:14;7.45;;;1.77;;
21843;SDS011;11084;52.482;9.108;2022-08-21T14:40:42;9.60;;;1.90;;
21843;SDS011;11084;52.482;9.108;2022-08-21T14:43:12;4.93;;;1.90;;
21843;SDS011;11084;52.482;9.108;2022-08-21T14:45:38;5.60;;;1.60;;
21843;SDS011;11084;52.482;9.108;2022-08-21T14:48:06;4.85;;;2.13;;
21843;SDS011;11084;52.482;9.108;2022-08-21T14:50:33;7.40;;;2.25;;
21843;SDS011;11084;52.482;9.108;2022-08-21T14:52:59;8.15;;;2.13;;
21843;SDS011;11084;52.482;9.108;2022-08-21T14:55:25;3.85;;;1.77;;
21843;SDS011;11084;52.482;9.108;2022-08-21T14:57:52;2.47;;;1.75;;
21843;SDS011;11084;52.482;9.108;2022-08-21T15:00:21;3.03;;;1.75;;
21843;SDS011;11084;52.482;9.108;2022-08-21T15:02:50;7.82;;;2.10;;
21843;SDS011;11084;52.482;9.108;2022-08-21T15:05:17;4.05;;;1.77;;
21843;SDS011;11084;52.482;9.108;2022-08-21T15:07:43;4.70;;;1.80;;
21843;SDS011;11084;52.482;9.108;2022-08-21T15:10:10;3.75;;;1.77;;
21843;SDS011;11084;52.482;9.108;2022-08-21T15:12:37;3.22;;;1.60;;
21843;SDS011;11084;52.482;9.108;2022-08-21T15:15:05;13.45;;;2.20;;
21843;SDS011;11084;52.482;9.108;2022-08-21T15:17:33;3.53;;;1.88;;
21843;SDS011;11084;52.482;9.108;2022-08-21T15:20:01;6.43;;;1.85;;
21843;SDS011;11084;52.482;9.108;2022-08-21T15:22:30;6.03;;;2.00;;
21843;SDS011;11084;52.482;9.108;2022-08-21T15:24:56;4.65;;;1.77;;
21843;SDS011;11084;52.482;9.108;2022-08-21T15:27:25;4.03;;;1.75;;
21843;SDS011;11084;52.482;9.108;2022-08-21T15:29:52;4.55;;;2.30;;
21843;SDS011;11084;52.482;9.108;2022-08-21T15:32:23;4.80;;;1.80;;
21843;SDS011;11084;52.482;9.108;2022-08-21T15:34:54;6.05;;;1.80;;
21843;SDS011;11084;52.482;9.108;2022-08-21T15:37:21;6.00;;;1.65;;
21843;SDS011;11084;52.482;9.108;2022-08-21T15:39:49;5.45;;;2.00;;
21843;SDS011;11084;52.482;9.108;2022-08-21T15:42:18;3.37;;;1.67;;
21843;SDS011;11084;52.482;9.108;2022-08-21T15:44:46;5.27;;;1.70;;
21843;SDS011;11084;52.482;9.108;2022-08-21T15:47:18;3.97;;;1.97;;
21843;SDS011;11084;52.482;9.108;2022-08-21T15:49:47;3.20;;;1.47;;
21843;SDS011;11084;52.482;9.108;2022-08-21T15:52:14;3.60;;;1.97;;
21843;SDS011;11084;52.482;9.108;2022-08-21T15:54:46;3.90;;;1.73;;
21843;SDS011;11084;52.482;9.108;2022-08-21T15:57:15;4.27;;;1.70;;
21843;SDS011;11084;52.482;9.108;2022-08-21T15:59:48;3.83;;;1.50;;
21843;SDS011;11084;52.482;9.108;2022-08-21T16:02:30;3.27;;;1.77;;
21843;SDS011;11084;52.482;9.108;2022-08-21T16:04:57;5.53;;;1.70;;
21843;SDS011;11084;52.482;9.108;2022-08-21T16:07:25;3.97;;;2.20;;
21843;SDS011;11084;52.482;9.108;2022-08-21T16:09:51;6.63;;;1.90;;
21843;SDS011;11084;52.482;9.108;2022-08-21T16:12:27;4.10;;;1.77;;
21843;SDS011;11084;52.482;9.108;2022-08-21T16:15:06;5.40;;;1.60;;
21843;SDS011;11084;52.482;9.108;2022-08-21T16:17:36;5.70;;;1.53;;
21843;SDS011;11084;52.482;9.108;2022-08-21T16:20:09;3.77;;;1.60;;
21843;SDS011;11084;52.482;9.108;2022-08-21T16:22:38;3.90;;;1.73;;
21843;SDS011;11084;52.482;9.108;2022-08-21T16:25:04;4.53;;;1.70;;
21843;SDS011;11084;52.482;9.108;2022-08-21T16:27:31;2.63;;;1.50;;
21843;SDS011;11084;52.482;9.108;2022-08-21T16:29:59;4.10;;;1.30;;
21843;SDS011;11084;52.482;9.108;2022-08-21T16:32:25;4.00;;;1.43;;
21843;SDS011;11084;52.482;9.108;2022-08-21T16:34:53;2.47;;;1.30;;
21843;SDS011;11084;52.482;9.108;2022-08-21T16:37:20;3.07;;;1.23;;
21843;SDS011;11084;52.482;9.108;2022-08-21T16:39:46;6.13;;;0.80;;
21843;SDS011;11084;52.482;9.108;2022-08-21T16:42:14;4.63;;;1.00;;
21843;SDS011;11084;52.482;9.108;2022-08-21T16:44:47;5.70;;;1.23;;
21843;SDS011;11084;52.482;9.108;2022-08-21T16:47:13;4.80;;;0.93;;
21843;SDS011;11084;52.482;9.108;2022-08-21T16:49:40;3.63;;;0.93;;
21843;SDS011;11084;52.482;9.108;2022-08-21T16:52:06;1.00;;;0.93;;